Time;durP1;ratioP1;P1;durP2;ratioP2;P2;SDS_P1;SDS_P2;PMS_P1;PMS_P2;Temp;Humidity;BMP_temperature;BMP_pressure;BME280_temperature;BME280_humidity;BME280_pressure;Samples;Min_cycle;Max_cycle;Signal;HPM_P1;HPM_P2
2022/08/28 00:00:33;;;;;;;9.10;3.63;;;15.30;99.90;;;;;;5052650;28;20063;-67
2022/08/28 00:02:59;;;;;;;10.40;3.20;;;15.20;99.90;;;;;;5054744;28;20036;-69
2022/08/28 00:05:28;;;;;;;8.38;3.33;;;15.20;99.90;;;;;;5055185;28;20483;-67
2022/08/28 00:07:54;;;;;;;5.97;3.40;;;15.20;99.90;;;;;;5055187;28;20516;-67
2022/08/28 00:10:22;;;;;;;8.60;3.72;;;15.20;99.90;;;;;;5054238;28;20041;-67
2022/08/28 00:12:50;;;;;;;12.48;2.95;;;15.10;99.90;;;;;;5054869;28;20041;-69
2022/08/28 00:15:23;;;;;;;9.48;3.33;;;15.10;99.90;;;;;;5053179;28;20090;-66
2022/08/28 00:17:49;;;;;;;8.82;3.92;;;15.00;99.90;;;;;;5053268;28;20060;-66
2022/08/28 00:20:17;;;;;;;10.02;3.33;;;15.10;99.90;;;;;;5054254;28;20495;-67
2022/08/28 00:22:44;;;;;;;10.32;3.40;;;15.00;99.90;;;;;;5053262;28;20049;-66
2022/08/28 00:25:12;;;;;;;8.43;3.38;;;15.00;99.90;;;;;;5054412;28;20047;-66
2022/08/28 00:27:52;;;;;;;6.60;3.92;;;15.00;99.90;;;;;;5053026;28;20049;-66
2022/08/28 00:30:29;;;;;;;10.95;3.60;;;15.00;99.90;;;;;;5035608;28;20045;-66
2022/08/28 00:33:04;;;;;;;7.13;3.25;;;14.90;99.90;;;;;;5054007;28;20041;-66
2022/08/28 00:35:31;;;;;;;9.00;2.90;;;14.90;99.90;;;;;;5052706;28;20099;-66
2022/08/28 00:37:57;;;;;;;13.70;3.00;;;15.00;99.90;;;;;;5053973;28;20541;-66
2022/08/28 00:40:25;;;;;;;9.27;3.03;;;15.00;99.90;;;;;;5053398;28;20112;-66
2022/08/28 00:42:51;;;;;;;8.55;3.42;;;15.00;99.90;;;;;;5053816;28;20067;-67
2022/08/28 00:45:18;;;;;;;8.82;3.63;;;15.00;99.90;;;;;;5054052;28;20044;-66
2022/08/28 00:47:45;;;;;;;11.13;3.90;;;14.90;99.90;;;;;;5052427;28;20044;-67
2022/08/28 00:50:16;;;;;;;11.57;3.50;;;15.00;99.90;;;;;;5053579;28;20091;-67
2022/08/28 00:52:45;;;;;;;12.07;3.58;;;14.90;99.90;;;;;;5036176;28;20041;-67
2022/08/28 00:55:15;;;;;;;7.28;3.63;;;14.80;99.90;;;;;;5053460;28;20041;-66
2022/08/28 00:57:52;;;;;;;9.82;3.20;;;14.70;99.90;;;;;;5052454;28;20033;-67
2022/08/28 01:00:33;;;;;;;8.88;3.58;;;14.90;99.90;;;;;;5053329;28;20403;-67
2022/08/28 01:02:59;;;;;;;12.57;3.75;;;14.80;99.90;;;;;;5053573;28;20033;-66
2022/08/28 01:05:25;;;;;;;8.60;3.70;;;14.80;99.90;;;;;;5052464;28;20041;-66
2022/08/28 01:07:51;;;;;;;10.70;3.35;;;14.80;99.90;;;;;;5053217;28;20407;-66
2022/08/28 01:10:21;;;;;;;6.75;2.90;;;14.80;99.90;;;;;;5052994;28;20033;-66
2022/08/28 01:12:50;;;;;;;8.40;2.85;;;14.80;99.90;;;;;;5053425;28;20125;-66
2022/08/28 01:15:19;;;;;;;8.07;3.17;;;14.80;99.90;;;;;;5053276;28;20041;-66
2022/08/28 01:17:52;;;;;;;10.20;3.20;;;14.80;99.90;;;;;;5051971;28;20057;-66
2022/08/28 01:20:21;;;;;;;7.45;2.63;;;14.70;99.90;;;;;;5052785;28;20068;-66
2022/08/28 01:23:04;;;;;;;10.90;3.70;;;14.70;99.90;;;;;;5053201;28;20037;-66
2022/08/28 01:25:34;;;;;;;8.82;2.78;;;14.80;99.90;;;;;;5052644;28;20128;-66
2022/08/28 01:28:04;;;;;;;9.23;3.13;;;14.70;99.90;;;;;;5052569;28;20069;-66
2022/08/28 01:30:30;;;;;;;11.60;3.75;;;14.70;99.90;;;;;;5052451;28;20033;-66
2022/08/28 01:32:57;;;;;;;12.98;3.60;;;14.70;99.90;;;;;;5052764;28;20056;-66
2022/08/28 01:35:26;;;;;;;7.57;3.33;;;14.70;99.90;;;;;;5052963;28;20375;-66
2022/08/28 01:37:54;;;;;;;9.85;4.30;;;14.60;99.90;;;;;;5052937;28;20116;-66
2022/08/28 01:40:26;;;;;;;9.20;3.78;;;14.60;99.90;;;;;;5052540;28;20069;-66
2022/08/28 01:42:52;;;;;;;11.57;3.33;;;14.70;99.90;;;;;;5051471;28;20048;-66
2022/08/28 01:45:19;;;;;;;5.70;2.90;;;14.60;99.90;;;;;;5052650;28;20036;-66
2022/08/28 01:47:45;;;;;;;9.35;3.53;;;14.70;99.90;;;;;;5052863;28;20048;-66
2022/08/28 01:50:14;;;;;;;6.07;2.97;;;14.70;99.90;;;;;;5052097;28;20562;-66
2022/08/28 01:52:41;;;;;;;7.00;2.72;;;14.60;99.90;;;;;;5052691;28;20044;-66
2022/08/28 01:55:07;;;;;;;7.25;2.65;;;14.60;99.90;;;;;;5061008;28;20048;-66
2022/08/28 01:57:34;;;;;;;5.50;2.90;;;14.60;99.90;;;;;;5061607;28;20094;-66
2022/08/28 01:59:59;;;;;;;11.40;4.47;;;14.50;99.90;;;;;;5052365;28;20082;-66
2022/08/28 02:02:25;;;;;;;6.63;2.95;;;14.50;99.90;;;;;;5051513;28;20049;-66
2022/08/28 02:04:52;;;;;;;10.50;2.90;;;14.50;99.90;;;;;;5052310;28;20049;-66
2022/08/28 02:07:18;;;;;;;9.48;3.17;;;14.60;99.90;;;;;;5052342;28;20490;-67
2022/08/28 02:09:44;;;;;;;9.15;2.63;;;14.50;99.90;;;;;;5051714;28;20036;-66
2022/08/28 02:12:09;;;;;;;15.95;4.20;;;14.50;99.90;;;;;;5051063;28;20048;-66
2022/08/28 02:14:35;;;;;;;8.77;3.10;;;14.60;99.90;;;;;;5051722;28;20040;-66
2022/08/28 02:17:01;;;;;;;9.25;3.42;;;14.50;99.90;;;;;;5052287;28;20055;-66
2022/08/28 02:19:28;;;;;;;12.65;3.15;;;14.50;99.90;;;;;;5051637;28;20048;-66
2022/08/28 02:21:54;;;;;;;10.20;2.72;;;14.60;99.90;;;;;;5050986;28;20045;-66
2022/08/28 02:24:19;;;;;;;7.45;3.00;;;14.50;99.90;;;;;;5052034;28;20037;-66
2022/08/28 02:26:45;;;;;;;6.40;3.25;;;14.60;99.90;;;;;;5051919;28;20033;-66
2022/08/28 02:29:11;;;;;;;10.90;3.53;;;14.60;99.90;;;;;;5050185;28;20090;-66
2022/08/28 02:31:37;;;;;;;10.63;3.38;;;14.50;99.90;;;;;;5051813;28;20036;-66
2022/08/28 02:34:04;;;;;;;8.07;3.28;;;14.50;99.90;;;;;;5051881;28;20068;-66
2022/08/28 02:36:30;;;;;;;8.70;3.40;;;14.60;99.90;;;;;;5051547;28;20078;-66
2022/08/28 02:38:56;;;;;;;5.40;2.85;;;14.50;99.90;;;;;;5050096;28;20043;-66
2022/08/28 02:41:22;;;;;;;7.88;3.40;;;14.50;99.90;;;;;;5051136;28;20406;-66
2022/08/28 02:43:47;;;;;;;7.47;3.10;;;14.50;99.90;;;;;;5051581;28;20029;-66
2022/08/28 02:46:13;;;;;;;7.13;2.88;;;14.50;99.90;;;;;;5051835;28;20076;-66
2022/08/28 02:48:39;;;;;;;10.52;3.50;;;14.50;99.90;;;;;;5051717;28;20041;-66
2022/08/28 02:51:09;;;;;;;5.72;2.90;;;14.40;99.90;;;;;;5051418;28;20099;-66
2022/08/28 02:53:35;;;;;;;8.32;3.20;;;14.40;99.90;;;;;;5051528;28;20045;-66
2022/08/28 02:56:01;;;;;;;9.23;3.00;;;14.50;99.90;;;;;;5051490;28;20044;-66
2022/08/28 02:58:31;;;;;;;7.45;2.80;;;14.40;99.90;;;;;;5051447;28;20045;-66
2022/08/28 03:00:57;;;;;;;8.20;2.75;;;14.40;99.90;;;;;;5049865;28;20486;-66
2022/08/28 03:03:22;;;;;;;8.13;2.45;;;14.40;99.90;;;;;;5051478;28;20452;-66
2022/08/28 03:05:48;;;;;;;9.40;3.67;;;14.30;99.90;;;;;;5051339;28;20077;-66
2022/08/28 03:08:14;;;;;;;13.70;3.33;;;14.30;99.90;;;;;;5050006;28;20123;-66
2022/08/28 03:10:40;;;;;;;7.72;2.90;;;14.40;99.90;;;;;;5050944;28;20045;-66
2022/08/28 03:13:06;;;;;;;10.43;2.80;;;14.40;99.90;;;;;;5033459;28;20044;-66
2022/08/28 03:15:31;;;;;;;6.68;2.40;;;14.30;99.90;;;;;;5051377;28;20406;-66
2022/08/28 03:17:57;;;;;;;10.70;2.65;;;14.30;99.90;;;;;;5051322;28;20033;-66
2022/08/28 03:20:23;;;;;;;10.82;2.78;;;14.40;99.90;;;;;;5049715;28;20033;-66
2022/08/28 03:25:32;;;;;;;7.22;2.25;;;14.40;99.90;;;;;;5050258;28;20072;-66
2022/08/28 03:27:58;;;;;;;7.00;2.50;;;14.50;99.90;;;;;;5051230;28;20502;-66
2022/08/28 03:30:24;;;;;;;6.07;2.65;;;14.50;99.90;;;;;;5049926;28;20040;-66
2022/08/28 03:32:49;;;;;;;8.32;3.08;;;14.50;99.90;;;;;;5051191;28;20044;-66
2022/08/28 03:35:15;;;;;;;5.80;2.33;;;14.40;99.90;;;;;;5051112;28;20120;-66
2022/08/28 03:37:41;;;;;;;9.07;1.75;;;14.50;99.90;;;;;;5051207;28;20036;-66
2022/08/28 03:40:08;;;;;;;6.15;3.58;;;14.50;99.90;;;;;;5050862;28;20039;-66
2022/08/28 03:42:34;;;;;;;5.88;2.22;;;14.50;99.90;;;;;;5034379;28;20041;-66
2022/08/28 03:45:00;;;;;;;7.80;2.50;;;14.50;99.90;;;;;;5052082;28;20120;-66
2022/08/28 03:47:27;;;;;;;8.82;2.45;;;14.50;99.90;;;;;;5050390;28;20077;-66
2022/08/28 03:49:56;;;;;;;5.47;1.65;;;14.40;99.90;;;;;;5048273;28;20044;-66
2022/08/28 03:52:23;;;;;;;8.15;2.22;;;14.50;99.90;;;;;;5053536;28;20048;-66
2022/08/28 03:54:49;;;;;;;6.65;2.20;;;14.40;99.90;;;;;;5050725;28;20095;-66
2022/08/28 03:57:19;;;;;;;6.90;1.88;;;14.50;99.90;;;;;;5054265;28;20123;-66
2022/08/28 03:59:47;;;;;;;7.32;2.72;;;14.40;99.90;;;;;;5054374;28;20049;-66
2022/08/28 04:02:12;;;;;;;4.97;2.20;;;14.40;99.90;;;;;;5036738;28;20116;-66
2022/08/28 04:04:38;;;;;;;5.80;2.17;;;14.40;99.90;;;;;;5054758;28;20468;-66
2022/08/28 04:07:03;;;;;;;6.85;2.38;;;14.40;99.90;;;;;;5054594;28;20033;-66
2022/08/28 04:09:29;;;;;;;5.70;2.15;;;14.30;99.90;;;;;;5077626;22;20045;-69
2022/08/28 04:11:54;;;;;;;9.60;2.15;;;14.30;99.90;;;;;;5054625;28;20132;-68
2022/08/28 04:14:20;;;;;;;5.07;1.88;;;14.40;99.90;;;;;;5054527;28;20080;-69
2022/08/28 04:16:45;;;;;;;9.15;2.45;;;14.40;99.90;;;;;;5054110;28;20064;-68
2022/08/28 04:19:13;;;;;;;9.82;2.60;;;14.40;99.90;;;;;;5053836;28;20064;-69
2022/08/28 04:21:38;;;;;;;6.30;2.15;;;14.30;99.90;;;;;;5054213;28;20037;-68
2022/08/28 04:24:04;;;;;;;8.65;2.08;;;14.30;99.90;;;;;;5054686;28;20178;-68
2022/08/28 04:26:35;;;;;;;11.85;2.95;;;14.40;99.90;;;;;;5054273;28;20127;-69
2022/08/28 04:29:01;;;;;;;6.65;2.17;;;14.30;99.90;;;;;;5054183;28;20044;-69
2022/08/28 04:31:27;;;;;;;5.05;2.00;;;14.30;99.90;;;;;;5053653;28;20176;-69
2022/08/28 04:33:54;;;;;;;6.43;2.80;;;14.30;99.90;;;;;;5052832;28;20064;-69
2022/08/28 04:36:20;;;;;;;8.25;2.17;;;14.30;99.90;;;;;;5053527;28;20045;-69
2022/08/28 04:38:49;;;;;;;9.27;2.55;;;14.40;99.90;;;;;;5054222;28;20532;-69
2022/08/28 04:41:16;;;;;;;7.88;2.08;;;14.40;99.90;;;;;;5053549;28;20047;-69
2022/08/28 04:43:42;;;;;;;7.22;2.63;;;14.40;99.90;;;;;;5053817;28;20033;-69
2022/08/28 04:46:11;;;;;;;6.20;2.33;;;14.40;99.90;;;;;;5053857;28;20056;-69
2022/08/28 04:48:38;;;;;;;9.50;2.45;;;14.50;99.90;;;;;;5053799;28;20095;-69
2022/08/28 04:51:08;;;;;;;6.10;2.25;;;14.50;99.90;;;;;;5053393;28;20041;-69
2022/08/28 04:53:34;;;;;;;9.07;3.72;;;14.50;99.90;;;;;;5053907;28;20200;-69
2022/08/28 04:56:03;;;;;;;10.48;2.30;;;14.40;99.90;;;;;;5053666;28;20037;-69
2022/08/28 04:58:29;;;;;;;9.50;2.42;;;14.50;99.90;;;;;;5053685;28;20037;-69
2022/08/28 05:00:55;;;;;;;8.80;2.53;;;14.50;99.90;;;;;;5052928;28;20415;-69
2022/08/28 05:03:21;;;;;;;10.32;2.83;;;14.40;99.90;;;;;;5052683;28;20123;-69
2022/08/28 05:05:50;;;;;;;8.18;2.63;;;14.50;99.90;;;;;;5053546;28;20048;-69
2022/08/28 05:08:17;;;;;;;11.75;2.60;;;14.50;99.90;;;;;;5053247;28;20494;-69
2022/08/28 05:10:45;;;;;;;7.43;2.58;;;14.50;99.90;;;;;;5034848;28;20091;-69
2022/08/28 05:13:12;;;;;;;7.78;2.20;;;14.60;99.90;;;;;;5053320;28;20065;-69
2022/08/28 05:15:43;;;;;;;8.35;2.40;;;14.60;99.90;;;;;;5053231;28;20045;-69
2022/08/28 05:18:10;;;;;;;6.82;2.40;;;14.70;99.90;;;;;;5053170;28;20071;-69
2022/08/28 05:20:38;;;;;;;7.20;2.20;;;14.80;99.90;;;;;;5053022;28;20045;-69
2022/08/28 05:23:05;;;;;;;12.60;2.67;;;14.80;99.90;;;;;;5053256;28;20044;-69
2022/08/28 05:25:39;;;;;;;10.77;2.38;;;15.00;99.90;;;;;;5052625;28;20131;-69
2022/08/28 05:28:05;;;;;;;6.18;2.47;;;15.00;99.90;;;;;;5053089;28;20049;-69
2022/08/28 05:30:32;;;;;;;7.30;2.08;;;15.00;99.90;;;;;;5052443;28;20182;-69
2022/08/28 05:32:58;;;;;;;8.95;2.22;;;15.10;99.90;;;;;;5053154;28;20508;-68
2022/08/28 05:35:25;;;;;;;4.22;1.98;;;14.90;99.90;;;;;;5053018;28;20037;-68
2022/08/28 05:37:51;;;;;;;9.85;2.88;;;14.90;99.90;;;;;;5053035;28;20048;-68
2022/08/28 05:40:20;;;;;;;7.30;2.17;;;15.00;99.90;;;;;;5052439;28;20667;-68
2022/08/28 05:42:49;;;;;;;9.65;1.95;;;15.20;99.90;;;;;;5051475;28;20040;-68
2022/08/28 05:45:15;;;;;;;9.07;2.13;;;15.30;99.90;;;;;;5052952;28;20049;-68
2022/08/28 05:47:41;;;;;;;9.77;2.13;;;15.50;99.90;;;;;;5052784;28;20044;-68
2022/08/28 05:50:07;;;;;;;6.05;1.50;;;15.50;99.90;;;;;;5051005;28;20052;-68
2022/08/28 05:52:36;;;;;;;7.72;1.88;;;15.50;99.90;;;;;;5052614;28;20557;-68
2022/08/28 05:55:02;;;;;;;8.90;1.83;;;15.60;99.90;;;;;;5051049;28;20045;-68
2022/08/28 05:57:28;;;;;;;10.60;2.30;;;15.50;99.90;;;;;;5052433;28;20037;-68
2022/08/28 05:59:54;;;;;;;5.90;1.73;;;15.70;99.90;;;;;;5052013;28;20498;-68
2022/08/28 06:02:19;;;;;;;5.80;2.10;;;15.90;99.90;;;;;;5052424;28;20040;-68
2022/08/28 06:04:46;;;;;;;7.95;1.70;;;16.20;99.90;;;;;;5052496;28;20068;-68
2022/08/28 06:07:14;;;;;;;8.18;2.47;;;16.70;99.90;;;;;;5052442;28;20037;-68
2022/08/28 06:09:40;;;;;;;9.10;1.75;;;16.90;99.90;;;;;;5050451;28;20029;-68
2022/08/28 06:12:06;;;;;;;5.93;1.70;;;17.20;99.90;;;;;;5052290;28;20048;-68
2022/08/28 06:14:32;;;;;;;3.28;1.63;;;17.50;99.90;;;;;;5052329;28;20100;-68
2022/08/28 06:16:58;;;;;;;5.57;1.80;;;17.80;99.90;;;;;;5050944;28;20293;-68
2022/08/28 06:19:26;;;;;;;6.30;2.03;;;18.10;99.90;;;;;;5051754;28;20045;-68
2022/08/28 06:21:58;;;;;;;4.20;1.30;;;18.40;99.90;;;;;;5052079;28;20040;-68
2022/08/28 06:24:24;;;;;;;8.23;2.35;;;18.60;99.90;;;;;;5051948;28;20047;-68
2022/08/28 06:26:51;;;;;;;6.70;1.65;;;18.70;99.20;;;;;;5052224;28;20056;-68
2022/08/28 06:29:19;;;;;;;6.65;2.53;;;19.00;98.20;;;;;;5051576;28;20127;-68
2022/08/28 06:31:45;;;;;;;8.05;1.65;;;19.00;97.40;;;;;;5051955;28;20041;-68
2022/08/28 06:34:11;;;;;;;6.47;1.58;;;19.30;97.20;;;;;;5051978;28;20094;-68
2022/08/28 06:36:40;;;;;;;5.80;1.52;;;19.30;96.40;;;;;;5050513;28;20045;-68
2022/08/28 06:39:08;;;;;;;5.75;1.67;;;19.40;95.20;;;;;;5051570;28;20037;-68
2022/08/28 06:41:39;;;;;;;4.38;1.60;;;19.50;95.00;;;;;;5051578;28;20085;-68
2022/08/28 06:44:06;;;;;;;7.97;1.67;;;19.60;94.80;;;;;;5050509;28;20044;-68
2022/08/28 06:46:33;;;;;;;7.80;2.33;;;19.90;94.50;;;;;;5051904;28;20119;-68
2022/08/28 06:49:01;;;;;;;10.23;1.80;;;20.00;93.60;;;;;;5051620;28;20060;-69
2022/08/28 06:51:26;;;;;;;6.88;1.50;;;20.20;93.30;;;;;;5051279;28;20057;-69
2022/08/28 06:53:52;;;;;;;7.07;2.53;;;20.40;93.10;;;;;;5050268;28;20418;-68
2022/08/28 06:56:19;;;;;;;7.85;1.83;;;20.60;92.50;;;;;;5051690;28;20498;-68
2022/08/28 06:58:47;;;;;;;3.28;1.35;;;20.70;92.10;;;;;;5051839;28;20402;-69
2022/08/28 07:01:23;;;;;;;7.38;1.60;;;20.60;91.10;;;;;;5051246;28;20037;-69
2022/08/28 07:03:55;;;;;;;10.43;1.75;;;20.80;90.60;;;;;;5051608;28;20048;-69
2022/08/28 07:06:22;;;;;;;7.38;1.55;;;21.00;90.20;;;;;;5051515;28;20048;-69
2022/08/28 07:08:49;;;;;;;5.47;1.48;;;21.00;89.90;;;;;;5051498;28;20048;-69
2022/08/28 07:11:20;;;;;;;5.65;1.58;;;21.10;89.10;;;;;;5050945;28;20044;-69
2022/08/28 07:13:47;;;;;;;3.95;1.38;;;21.20;88.30;;;;;;5051612;28;20115;-69
2022/08/28 07:16:14;;;;;;;9.65;2.13;;;21.30;88.00;;;;;;5050401;28;20036;-69
2022/08/28 07:18:40;;;;;;;6.72;1.75;;;21.50;87.10;;;;;;5049594;28;20049;-69
2022/08/28 07:21:06;;;;;;;6.53;1.60;;;21.30;86.60;;;;;;5050713;28;20040;-69
2022/08/28 07:23:33;;;;;;;6.85;1.60;;;21.10;85.60;;;;;;5050888;28;20033;-69
2022/08/28 07:26:03;;;;;;;5.63;2.20;;;20.90;86.50;;;;;;5051480;28;20098;-70
2022/08/28 07:28:28;;;;;;;7.28;1.63;;;20.80;85.90;;;;;;5055254;28;20537;-69
2022/08/28 07:30:59;;;;;;;6.43;1.73;;;20.70;86.10;;;;;;5054891;28;20036;-69
2022/08/28 07:33:27;;;;;;;6.85;1.90;;;20.90;86.10;;;;;;5037585;28;20437;-69
2022/08/28 07:35:53;;;;;;;10.70;2.08;;;21.20;85.80;;;;;;5055277;28;20094;-69
2022/08/28 07:38:19;;;;;;;10.70;1.95;;;21.10;85.30;;;;;;5055178;28;20037;-69
2022/08/28 07:40:44;;;;;;;3.40;1.70;;;21.20;83.70;;;;;;5054846;28;20045;-69
2022/08/28 07:46:05;;;;;;;7.40;1.63;;;20.70;83.60;;;;;;5053962;28;20090;-69
2022/08/28 07:48:34;;;;;;;3.42;1.63;;;20.30;85.20;;;;;;5053705;28;20102;-69
2022/08/28 07:51:06;;;;;;;8.20;2.10;;;19.80;85.90;;;;;;5054395;28;20406;-69
2022/08/28 07:53:31;;;;;;;4.90;1.67;;;19.40;86.60;;;;;;5054939;28;20051;-69
2022/08/28 07:55:57;;;;;;;9.15;2.28;;;19.60;88.70;;;;;;5054687;28;20049;-69
2022/08/28 07:58:24;;;;;;;7.75;1.85;;;20.00;87.30;;;;;;5054611;28;20098;-69
2022/08/28 08:00:51;;;;;;;5.22;2.10;;;20.40;85.80;;;;;;5054503;28;20398;-69
2022/08/28 08:03:17;;;;;;;7.00;1.40;;;20.80;85.10;;;;;;5054549;28;20438;-69
2022/08/28 08:05:54;;;;;;;7.45;2.10;;;21.10;82.70;;;;;;5051019;28;20045;-68
2022/08/28 08:08:20;;;;;;;5.82;1.60;;;21.40;79.70;;;;;;5060877;28;20048;-68
2022/08/28 08:11:09;;;;;;;6.30;1.67;;;21.20;78.60;;;;;;5053569;28;20044;-68
2022/08/28 08:13:36;;;;;;;4.15;1.48;;;21.20;76.60;;;;;;5054327;28;20037;-68
2022/08/28 08:16:05;;;;;;;4.18;1.73;;;21.00;74.70;;;;;;5054299;28;20045;-69
2022/08/28 08:18:32;;;;;;;5.10;1.63;;;21.20;74.40;;;;;;5053992;28;20037;-69
2022/08/28 08:20:57;;;;;;;6.75;1.55;;;21.50;74.60;;;;;;5053788;28;20094;-69
2022/08/28 08:23:24;;;;;;;4.05;1.65;;;21.70;74.70;;;;;;5053703;28;20033;-69
2022/08/28 08:25:58;;;;;;;6.72;1.55;;;21.10;73.30;;;;;;5054090;28;20076;-69
2022/08/28 08:28:24;;;;;;;6.90;1.65;;;21.20;74.00;;;;;;5053922;28;20098;-69
2022/08/28 08:31:00;;;;;;;4.68;1.38;;;21.00;74.80;;;;;;5053695;28;20045;-68
2022/08/28 08:33:26;;;;;;;4.45;1.30;;;21.10;73.30;;;;;;5053992;28;20041;-69
2022/08/28 08:35:51;;;;;;;6.20;1.67;;;20.90;73.40;;;;;;5053480;28;20049;-69
2022/08/28 08:38:17;;;;;;;4.93;1.73;;;21.10;74.10;;;;;;5052664;28;20048;-69
2022/08/28 08:40:42;;;;;;;7.07;1.55;;;21.30;73.90;;;;;;5052958;28;20033;-69
2022/08/28 08:43:08;;;;;;;3.75;1.42;;;21.10;74.10;;;;;;5053733;28;20045;-68
2022/08/28 08:45:36;;;;;;;6.30;1.73;;;21.50;74.30;;;;;;5053492;28;20033;-69
2022/08/28 08:48:02;;;;;;;6.18;1.50;;;21.70;72.80;;;;;;5052639;28;20162;-68
2022/08/28 08:50:34;;;;;;;5.70;1.50;;;22.20;71.00;;;;;;5051669;28;20119;-68
2022/08/28 08:53:38;;;;;;;6.47;1.83;;;22.00;71.40;;;;;;5040177;28;20067;-68
2022/08/28 08:56:05;;;;;;;7.43;1.85;;;21.50;71.20;;;;;;5051500;28;20132;-68
2022/08/28 08:58:44;;;;;;;2.78;1.70;;;20.70;72.40;;;;;;5053444;28;20461;-68
2022/08/28 09:01:28;;;;;;;9.93;1.98;;;20.60;74.70;;;;;;5053017;28;20457;-69
2022/08/28 09:04:02;;;;;;;9.98;2.40;;;20.90;75.30;;;;;;5053453;28;20090;-69
2022/08/28 09:06:53;;;;;;;5.72;2.20;;;21.00;75.00;;;;;;5053246;28;20037;-69
2022/08/28 09:09:30;;;;;;;6.63;1.85;;;21.70;74.50;;;;;;5052448;28;20052;-69
2022/08/28 09:11:59;;;;;;;8.93;2.85;;;21.30;75.30;;;;;;5053176;28;20545;-69
2022/08/28 09:14:44;;;;;;;5.97;2.00;;;21.20;76.30;;;;;;5052970;28;20037;-69
2022/08/28 09:17:15;;;;;;;5.45;1.60;;;21.30;76.00;;;;;;5053159;28;20048;-70
2022/08/28 09:19:40;;;;;;;7.18;1.63;;;21.50;76.70;;;;;;5052342;28;20037;-69
2022/08/28 09:22:06;;;;;;;6.47;1.98;;;21.40;75.50;;;;;;5053160;28;20517;-68
2022/08/28 09:24:37;;;;;;;7.80;1.90;;;21.50;74.50;;;;;;5051631;28;20045;-69
2022/08/28 09:27:21;;;;;;;6.38;1.70;;;21.60;74.60;;;;;;5052874;28;20065;-69
2022/08/28 09:29:54;;;;;;;6.80;2.25;;;22.00;73.40;;;;;;5051727;28;20037;-70
2022/08/28 09:32:24;;;;;;;8.45;2.17;;;21.60;72.50;;;;;;5048838;28;20086;-69
2022/08/28 09:35:11;;;;;;;8.32;1.67;;;21.50;73.00;;;;;;5039604;28;20037;-69
2022/08/28 09:37:37;;;;;;;7.03;2.20;;;20.90;70.70;;;;;;5052057;28;20037;-69
2022/08/28 09:40:21;;;;;;;6.30;2.28;;;20.90;72.60;;;;;;5052117;28;20102;-69
2022/08/28 09:45:41;;;;;;;8.02;2.10;;;20.90;71.80;;;;;;5052543;28;20037;-69
2022/08/28 09:48:19;;;;;;;9.77;2.22;;;21.10;72.80;;;;;;5046358;28;20495;-68
2022/08/28 09:50:57;;;;;;;4.80;1.55;;;20.90;71.40;;;;;;5051909;28;20041;-69
2022/08/28 09:53:22;;;;;;;6.20;1.40;;;21.00;71.00;;;;;;5052403;28;20524;-69
2022/08/28 09:56:09;;;;;;;6.88;2.05;;;20.90;70.80;;;;;;5052399;28;20049;-69
2022/08/28 09:58:42;;;;;;;3.88;1.58;;;21.10;70.20;;;;;;5051185;28;20052;-69
2022/08/28 10:01:25;;;;;;;6.82;1.88;;;21.10;71.10;;;;;;5051933;28;20109;-68
2022/08/28 10:04:16;;;;;;;6.28;1.60;;;20.90;70.00;;;;;;5052531;28;20056;-69
2022/08/28 10:06:53;;;;;;;6.60;1.52;;;20.90;71.40;;;;;;5052504;28;20457;-68
2022/08/28 10:11:58;;;;;;;7.70;1.77;;;21.10;72.00;;;;;;5049388;28;20061;-68
2022/08/28 10:14:53;;;;;;;8.82;2.38;;;21.30;70.60;;;;;;5052396;28;20080;-68
2022/08/28 10:18:02;;;;;;;9.98;1.88;;;21.10;69.00;;;;;;5051661;28;20411;-69
2022/08/28 10:21:09;;;;;;;4.78;1.90;;;20.90;70.70;;;;;;5048662;28;20041;-69
2022/08/28 10:23:43;;;;;;;6.32;2.00;;;20.50;70.50;;;;;;5027791;28;20543;-69
2022/08/28 10:26:46;;;;;;;5.47;1.65;;;20.40;71.30;;;;;;5040907;28;20045;-68
2022/08/28 10:29:27;;;;;;;6.93;1.85;;;20.10;71.90;;;;;;5048835;28;20108;-69
2022/08/28 10:32:14;;;;;;;4.53;1.88;;;19.90;72.40;;;;;;5051964;28;20069;-68
2022/08/28 10:34:56;;;;;;;4.95;1.90;;;20.20;74.60;;;;;;5051717;28;20037;-68
2022/08/28 10:37:32;;;;;;;5.78;1.83;;;20.40;74.10;;;;;;5052079;28;20041;-69
2022/08/28 10:40:01;;;;;;;3.47;1.25;;;20.60;73.50;;;;;;5051671;28;20040;-69
2022/08/28 10:42:34;;;;;;;7.60;2.13;;;20.70;72.80;;;;;;5050777;28;20487;-69
2022/08/28 10:45:04;;;;;;;;;;;21.00;71.80;;;;;;5050925;28;20092;-68
2022/08/28 10:47:35;;;;;;;4.35;2.00;;;20.80;70.20;;;;;;5051918;28;19924;-69
2022/08/28 10:50:23;;;;;;;5.88;1.90;;;20.80;71.00;;;;;;5051458;28;20122;-69
2022/08/28 10:53:01;;;;;;;6.07;1.48;;;20.90;69.60;;;;;;5051686;28;20037;-69
2022/08/28 10:56:05;;;;;;;5.30;1.70;;;20.60;68.30;;;;;;5033655;28;20491;-68
2022/08/28 10:58:35;;;;;;;3.83;1.50;;;20.60;69.60;;;;;;5053760;28;20056;-69
2022/08/28 11:01:10;;;;;;;6.40;1.85;;;20.70;68.80;;;;;;5052109;28;20033;-68
2022/08/28 11:03:41;;;;;;;5.00;1.65;;;20.90;68.70;;;;;;5051441;28;20040;-68
2022/08/28 11:06:23;;;;;;;5.53;2.25;;;20.90;68.80;;;;;;5050289;28;20049;-69
2022/08/28 11:08:53;;;;;;;6.97;1.85;;;20.90;67.00;;;;;;5050467;28;20041;-69
2022/08/28 11:11:38;;;;;;;3.97;1.45;;;20.30;66.90;;;;;;5051112;28;20147;-69
2022/08/28 11:14:03;;;;;;;5.68;1.63;;;20.40;67.70;;;;;;5050146;28;20178;-68
2022/08/28 11:16:29;;;;;;;4.90;1.83;;;20.30;67.80;;;;;;5051562;28;20124;-69
2022/08/28 11:19:33;;;;;;;7.60;1.92;;;20.30;66.80;;;;;;5050472;28;20048;-68
2022/08/28 11:22:25;;;;;;;3.85;1.55;;;20.60;68.20;;;;;;5051477;28;20453;-68
2022/08/28 11:25:12;;;;;;;4.97;1.77;;;20.70;67.90;;;;;;5050177;28;20048;-69
2022/08/28 11:27:38;;;;;;;7.00;1.92;;;20.90;67.00;;;;;;5051444;28;20056;-68
2022/08/28 11:30:10;;;;;;;4.40;2.10;;;20.90;67.60;;;;;;5050956;28;20037;-69
2022/08/28 11:32:51;;;;;;;7.68;2.40;;;21.00;68.60;;;;;;5051239;28;20069;-68
2022/08/28 11:35:19;;;;;;;5.13;1.55;;;20.80;68.70;;;;;;5049843;28;20045;-69
2022/08/28 11:37:48;;;;;;;7.47;2.15;;;20.70;69.20;;;;;;5051204;28;20041;-69
2022/08/28 11:40:42;;;;;;;7.43;1.73;;;20.60;69.50;;;;;;5050896;28;20061;-69
2022/08/28 11:43:14;;;;;;;8.77;2.03;;;20.60;70.20;;;;;;5050968;28;20033;-69
2022/08/28 11:45:44;;;;;;;5.50;1.67;;;20.90;70.00;;;;;;5051352;28;20127;-69
2022/08/28 11:48:22;;;;;;;4.40;1.85;;;20.70;69.00;;;;;;5049960;28;20069;-68
2022/08/28 11:50:59;;;;;;;5.00;1.45;;;20.70;70.50;;;;;;5050841;28;20037;-69
2022/08/28 11:53:49;;;;;;;6.57;1.85;;;20.70;69.00;;;;;;5049813;28;20052;-69
2022/08/28 11:56:24;;;;;;;5.10;1.55;;;20.70;69.20;;;;;;5049885;28;20075;-69
2022/08/28 11:58:59;;;;;;;5.53;1.85;;;20.60;69.20;;;;;;5033152;28;20168;-69
2022/08/28 12:01:36;;;;;;;6.13;1.67;;;20.50;67.30;;;;;;5050779;28;20037;-69
2022/08/28 12:04:18;;;;;;;5.03;1.55;;;20.70;67.60;;;;;;5049737;28;20041;-69
2022/08/28 12:06:45;;;;;;;3.78;2.03;;;20.70;66.00;;;;;;5051173;28;20083;-69
2022/08/28 12:09:24;;;;;;;6.35;1.92;;;20.60;67.50;;;;;;5050729;28;20053;-69
2022/08/28 12:11:51;;;;;;;6.88;1.73;;;20.80;67.30;;;;;;5051775;28;20102;-69
2022/08/28 12:14:39;;;;;;;6.30;2.00;;;20.80;67.00;;;;;;5054470;28;20044;-69
2022/08/28 12:17:21;;;;;;;4.60;1.83;;;20.70;67.10;;;;;;5054277;28;20053;-69
2022/08/28 12:19:53;;;;;;;4.88;1.65;;;20.50;66.50;;;;;;5054174;28;20048;-69
2022/08/28 12:22:22;;;;;;;6.03;1.52;;;20.10;65.60;;;;;;5054431;28;20537;-69
2022/08/28 12:24:55;;;;;;;5.93;1.70;;;20.00;65.80;;;;;;5054243;28;20045;-69
2022/08/28 12:27:22;;;;;;;6.32;2.08;;;20.00;66.40;;;;;;5052994;28;20098;-69
2022/08/28 12:29:52;;;;;;;5.18;1.75;;;20.20;67.70;;;;;;5050732;28;20517;-69
2022/08/28 12:32:35;;;;;;;6.10;1.60;;;20.40;67.30;;;;;;5052920;28;20037;-69
2022/08/28 12:35:01;;;;;;;3.00;1.40;;;20.20;67.20;;;;;;5053954;28;20063;-69
2022/08/28 12:37:37;;;;;;;5.35;1.52;;;20.20;67.80;;;;;;5052786;28;20518;-69
2022/08/28 12:40:27;;;;;;;4.72;1.52;;;20.10;67.80;;;;;;5053923;28;20037;-69
2022/08/28 12:43:10;;;;;;;3.83;1.83;;;20.20;69.60;;;;;;5056691;28;20052;-69
2022/08/28 12:45:47;;;;;;;5.10;2.00;;;20.00;69.50;;;;;;5062551;28;20414;-69
2022/08/28 12:48:30;;;;;;;5.47;1.63;;;20.10;70.80;;;;;;5040172;28;20072;-69
2022/08/28 12:51:10;;;;;;;11.00;2.33;;;20.10;70.80;;;;;;5051847;28;20067;-71
2022/08/28 12:53:42;;;;;;;5.43;1.90;;;20.40;71.30;;;;;;5052019;28;20482;-70
2022/08/28 12:56:09;;;;;;;3.92;1.73;;;20.50;71.20;;;;;;5053651;28;20487;-69
2022/08/28 12:58:38;;;;;;;8.43;2.20;;;20.30;70.70;;;;;;5052267;28;20045;-70
2022/08/28 13:01:11;;;;;;;5.78;1.75;;;20.50;71.50;;;;;;5053302;28;20368;-70
2022/08/28 13:03:50;;;;;;;5.70;2.13;;;20.60;71.40;;;;;;5053604;28;20040;-70
2022/08/28 13:06:27;;;;;;;7.00;1.60;;;20.60;70.10;;;;;;5039633;28;20040;-69
2022/08/28 13:09:02;;;;;;;4.95;1.50;;;20.60;70.20;;;;;;5052962;28;20045;-69
2022/08/28 13:11:36;;;;;;;5.97;1.73;;;20.30;69.30;;;;;;5048933;28;20043;-69
2022/08/28 13:14:03;;;;;;;5.55;2.15;;;20.50;70.40;;;;;;5035021;28;20067;-69